Time;durP1;ratioP1;P1;durP2;ratioP2;P2;SDS_P1;SDS_P2;PMS_P1;PMS_P2;Temp;Humidity;BMP_temperature;BMP_pressure;BME280_temperature;BME280_humidity;BME280_pressure;Samples;Min_cycle;Max_cycle;Signal;HPM_P1;HPM_P2
2022/09/26 00:01:15;;;;;;;6.80;4.85;;;14.30;99.90;;;;;;5011142;28;20061;-84
2022/09/26 00:03:46;;;;;;;4.70;4.25;;;14.30;99.90;;;;;;5006408;28;20076;-84
2022/09/26 00:06:15;;;;;;;5.18;4.13;;;14.30;99.90;;;;;;5002811;28;20129;-83
2022/09/26 00:08:41;;;;;;;5.22;4.35;;;14.30;99.90;;;;;;5003916;28;20100;-84
2022/09/26 00:11:10;;;;;;;5.05;4.05;;;14.30;99.90;;;;;;5008798;28;20047;-85
2022/09/26 00:13:39;;;;;;;4.38;3.67;;;14.30;99.90;;;;;;5015054;28;20057;-85
2022/09/26 00:16:08;;;;;;;5.75;3.92;;;14.30;99.90;;;;;;5020261;28;20049;-85
2022/09/26 00:18:35;;;;;;;6.35;4.45;;;14.20;99.90;;;;;;5020029;28;20056;-85
2022/09/26 00:21:03;;;;;;;7.07;4.70;;;14.20;99.90;;;;;;5014244;28;20050;-84
2022/09/26 00:23:30;;;;;;;5.38;4.50;;;14.20;99.90;;;;;;4991905;28;20133;-84
2022/09/26 00:25:57;;;;;;;9.32;4.63;;;14.20;99.90;;;;;;4988709;28;20050;-84
2022/09/26 00:28:24;;;;;;;4.70;3.78;;;14.20;99.90;;;;;;4998474;28;20129;-84
2022/09/26 00:30:51;;;;;;;6.60;4.35;;;14.20;99.90;;;;;;5017151;28;20062;-85
2022/09/26 00:33:18;;;;;;;8.88;4.55;;;14.20;99.90;;;;;;5022604;28;20049;-84
2022/09/26 00:35:52;;;;;;;9.65;4.80;;;14.20;99.90;;;;;;5020394;28;20097;-84
2022/09/26 00:38:19;;;;;;;6.72;4.45;;;14.20;99.90;;;;;;5016117;28;20423;-84
2022/09/26 00:40:47;;;;;;;7.13;4.75;;;14.10;99.90;;;;;;5011325;28;20531;-83
2022/09/26 00:43:30;;;;;;;8.05;4.82;;;14.20;99.90;;;;;;5006826;28;20054;-84
2022/09/26 00:46:04;;;;;;;5.50;4.07;;;14.10;99.90;;;;;;4979913;28;20133;-83
2022/09/26 00:48:33;;;;;;;4.85;4.05;;;14.10;99.90;;;;;;4996761;28;20070;-84
2022/09/26 00:51:00;;;;;;;7.03;4.07;;;14.10;99.90;;;;;;4992097;28;20096;-83
2022/09/26 00:53:34;;;;;;;6.45;3.90;;;14.10;99.90;;;;;;5023820;28;20073;-83
2022/09/26 00:56:06;;;;;;;5.47;3.45;;;14.10;99.90;;;;;;5029347;28;20222;-84
2022/09/26 00:58:41;;;;;;;3.83;2.97;;;14.10;99.90;;;;;;5023476;28;20050;-85
2022/09/26 01:01:09;;;;;;;3.90;2.63;;;14.10;99.90;;;;;;5032403;28;20080;-84
2022/09/26 01:03:38;;;;;;;5.35;3.50;;;14.10;99.90;;;;;;5018509;28;20050;-84
2022/09/26 01:06:04;;;;;;;4.95;3.28;;;14.10;99.90;;;;;;5009424;28;20671;-84
2022/09/26 01:08:35;;;;;;;4.80;3.67;;;14.10;99.90;;;;;;5004446;28;20472;-84
2022/09/26 01:11:03;;;;;;;4.15;3.75;;;14.10;99.90;;;;;;5001202;28;20121;-85
2022/09/26 01:13:31;;;;;;;4.47;3.67;;;14.10;99.90;;;;;;5006142;28;20110;-84
2022/09/26 01:15:58;;;;;;;5.05;3.97;;;14.00;99.90;;;;;;5001620;28;20084;-84
2022/09/26 01:18:26;;;;;;;6.82;3.92;;;14.00;99.90;;;;;;5020469;28;20137;-85
2022/09/26 01:21:14;;;;;;;4.38;3.63;;;14.00;99.90;;;;;;5013753;28;20049;-84
2022/09/26 01:23:53;;;;;;;5.65;3.58;;;14.00;99.90;;;;;;5013002;28;20048;-84
2022/09/26 01:26:46;;;;;;;6.15;3.60;;;13.90;99.90;;;;;;5004667;28;20060;-84
2022/09/26 01:29:34;;;;;;;3.95;3.53;;;13.90;99.90;;;;;;4997940;28;20050;-84
2022/09/26 01:32:48;;;;;;;4.07;3.17;;;13.90;99.90;;;;;;5027712;28;20053;-84
2022/09/26 01:35:41;;;;;;;4.13;3.42;;;13.90;99.90;;;;;;5005875;28;20142;-84
2022/09/26 01:38:23;;;;;;;5.75;3.22;;;13.90;99.90;;;;;;5002345;28;20094;-84
2022/09/26 01:41:14;;;;;;;5.60;3.92;;;13.90;99.90;;;;;;5030499;28;20041;-83
2022/09/26 01:44:03;;;;;;;4.03;3.22;;;13.80;99.90;;;;;;5029326;28;20038;-84
2022/09/26 01:46:41;;;;;;;5.88;3.40;;;13.90;99.90;;;;;;5020813;28;20050;-83
2022/09/26 01:49:10;;;;;;;4.65;3.55;;;13.80;99.90;;;;;;5010633;28;20062;-84
2022/09/26 01:51:54;;;;;;;6.80;3.80;;;13.80;99.90;;;;;;5022648;28;20049;-84
2022/09/26 01:54:27;;;;;;;4.40;3.08;;;13.80;99.90;;;;;;5023084;28;20050;-84
2022/09/26 01:56:57;;;;;;;3.30;3.00;;;13.80;99.90;;;;;;5017930;28;20049;-84
2022/09/26 01:59:41;;;;;;;5.32;3.67;;;13.80;99.90;;;;;;5017793;28;20070;-84
2022/09/26 02:02:20;;;;;;;4.38;3.60;;;13.80;99.90;;;;;;5008190;28;20052;-85
2022/09/26 02:04:51;;;;;;;6.68;4.07;;;13.70;99.90;;;;;;4995385;28;20057;-85
2022/09/26 02:07:27;;;;;;;5.00;4.03;;;13.80;99.90;;;;;;5007982;28;20051;-85
2022/09/26 02:10:01;;;;;;;7.43;4.07;;;13.70;99.90;;;;;;5018975;28;20050;-85
2022/09/26 02:12:35;;;;;;;5.30;4.45;;;13.80;99.90;;;;;;4981336;28;20046;-85
2022/09/26 02:15:07;;;;;;;7.55;4.78;;;13.80;99.90;;;;;;5005977;28;20133;-84
2022/09/26 02:17:42;;;;;;;8.98;5.10;;;13.70;99.90;;;;;;5007904;28;20182;-85
2022/09/26 02:20:15;;;;;;;7.20;6.13;;;13.60;99.90;;;;;;5012465;28;20119;-83
2022/09/26 02:22:42;;;;;;;12.50;7.85;;;13.70;99.90;;;;;;5008804;28;20057;-85
2022/09/26 02:25:10;;;;;;;11.48;7.72;;;13.60;99.90;;;;;;4997348;28;20047;-84
2022/09/26 02:27:37;;;;;;;12.90;8.68;;;13.60;99.90;;;;;;5004751;28;20050;-84
2022/09/26 02:30:05;;;;;;;12.18;8.27;;;13.60;99.90;;;;;;5003740;28;20050;-85
2022/09/26 02:32:33;;;;;;;12.52;8.48;;;13.60;99.90;;;;;;4997963;28;20045;-84
2022/09/26 02:35:52;;;;;;;15.73;9.18;;;13.60;99.90;;;;;;5014230;28;20061;-84
2022/09/26 02:37:48;;;;;;;11.52;8.65;;;13.60;99.90;;;;;;5008755;28;20678;-84
2022/09/26 02:40:15;;;;;;;12.55;8.13;;;13.50;99.90;;;;;;5005741;28;20052;-85
2022/09/26 02:42:56;;;;;;;13.48;8.65;;;13.60;99.90;;;;;;5010224;28;20069;-84
2022/09/26 02:45:34;;;;;;;12.02;8.25;;;13.60;99.90;;;;;;5014582;28;20046;-84
2022/09/26 02:48:26;;;;;;;16.67;9.20;;;13.60;99.90;;;;;;4991445;28;20507;-85
2022/09/26 02:51:19;;;;;;;14.23;8.40;;;13.50;99.90;;;;;;5011951;28;20050;-85
2022/09/26 02:54:04;;;;;;;10.63;7.72;;;13.50;99.90;;;;;;5016546;28;20137;-85
2022/09/26 02:56:55;;;;;;;15.88;8.93;;;13.50;99.90;;;;;;5013814;28;20118;-84
2022/09/26 02:59:33;;;;;;;13.43;8.65;;;13.50;99.90;;;;;;4989954;28;20443;-85
2022/09/26 03:02:08;;;;;;;13.70;8.05;;;13.50;99.90;;;;;;5012132;28;20602;-85
2022/09/26 03:04:54;;;;;;;10.02;7.50;;;13.60;99.90;;;;;;5005199;28;20085;-85
2022/09/26 03:07:34;;;;;;;10.95;7.75;;;13.60;99.90;;;;;;5004089;28;20141;-85
2022/09/26 03:10:03;;;;;;;14.20;9.63;;;13.60;99.90;;;;;;5008546;28;20495;-85
2022/09/26 03:12:31;;;;;;;12.77;8.60;;;13.60;99.90;;;;;;5017280;28;20050;-85
2022/09/26 03:15:01;;;;;;;13.25;8.57;;;13.50;99.90;;;;;;5002099;28;20081;-84
2022/09/26 03:17:29;;;;;;;12.23;8.50;;;13.50;99.90;;;;;;5010896;28;20050;-84
2022/09/26 03:20:07;;;;;;;11.45;7.88;;;13.50;99.90;;;;;;4991631;28;20050;-84
2022/09/26 03:22:33;;;;;;;12.27;8.27;;;13.50;99.90;;;;;;4988099;28;20054;-85
2022/09/26 03:25:01;;;;;;;13.05;8.90;;;13.50;99.90;;;;;;5003364;28;20129;-85
2022/09/26 03:27:30;;;;;;;11.80;7.90;;;13.40;99.90;;;;;;5017898;28;20050;-85
2022/09/26 03:29:58;;;;;;;11.65;8.30;;;13.40;99.90;;;;;;5008863;28;20047;-84
2022/09/26 03:32:25;;;;;;;10.25;6.88;;;13.40;99.90;;;;;;5015216;28;20530;-84
2022/09/26 03:34:51;;;;;;;7.82;5.72;;;13.40;99.90;;;;;;5019825;28;20049;-85
2022/09/26 03:37:20;;;;;;;9.23;6.30;;;13.40;99.90;;;;;;5017095;28;20132;-84
2022/09/26 03:39:50;;;;;;;10.25;6.35;;;13.50;99.90;;;;;;5016710;28;20078;-85
2022/09/26 03:42:16;;;;;;;10.75;6.07;;;13.30;99.90;;;;;;5026261;28;20050;-85
2022/09/26 03:44:43;;;;;;;7.97;5.80;;;13.30;99.90;;;;;;5007540;28;20599;-85
2022/09/26 03:47:10;;;;;;;7.97;5.82;;;13.10;99.90;;;;;;5014175;28;20137;-85
2022/09/26 03:49:37;;;;;;;7.60;5.72;;;13.30;99.90;;;;;;5028190;28;20069;-85
2022/09/26 03:52:06;;;;;;;9.30;6.03;;;13.40;99.90;;;;;;5020001;28;20049;-84
2022/09/26 03:54:32;;;;;;;8.55;6.13;;;13.30;99.90;;;;;;5017723;28;20054;-86
2022/09/26 03:56:59;;;;;;;11.05;6.38;;;13.30;99.90;;;;;;5017398;28;20056;-85
2022/09/26 03:59:26;;;;;;;7.90;5.30;;;13.20;99.90;;;;;;5015094;28;20583;-84
2022/09/26 04:01:53;;;;;;;7.70;5.57;;;13.20;99.90;;;;;;5010679;28;20069;-85
2022/09/26 04:04:20;;;;;;;11.40;6.32;;;13.10;99.90;;;;;;5005746;28;20118;-84
2022/09/26 04:06:49;;;;;;;10.82;6.95;;;13.00;99.90;;;;;;5001665;28;20129;-85
2022/09/26 04:09:16;;;;;;;8.75;5.85;;;13.10;99.90;;;;;;5012456;28;20146;-85
2022/09/26 04:11:44;;;;;;;10.10;6.13;;;13.10;99.90;;;;;;5008263;28;20504;-85
2022/09/26 04:14:10;;;;;;;11.70;6.03;;;13.10;99.90;;;;;;5022130;28;20507;-85
2022/09/26 04:16:37;;;;;;;11.52;6.38;;;13.00;99.90;;;;;;5003303;28;20137;-85
2022/09/26 04:19:04;;;;;;;11.05;7.07;;;13.10;99.90;;;;;;5010301;28;20046;-85
2022/09/26 04:21:34;;;;;;;14.15;7.22;;;13.00;99.90;;;;;;5014201;28;20049;-86
2022/09/26 04:24:01;;;;;;;9.73;7.15;;;13.00;99.90;;;;;;5010189;28;20136;-85
2022/09/26 04:26:28;;;;;;;10.07;6.18;;;13.00;99.90;;;;;;5015145;28;20140;-85
2022/09/26 04:28:56;;;;;;;12.02;6.28;;;13.10;99.90;;;;;;5002021;28;20068;-85
2022/09/26 04:31:26;;;;;;;10.15;5.80;;;13.00;99.90;;;;;;4997808;28;20069;-85
2022/09/26 04:33:54;;;;;;;10.60;6.60;;;13.00;99.90;;;;;;5008042;28;20504;-84
2022/09/26 04:36:21;;;;;;;11.68;7.13;;;13.00;99.90;;;;;;5004459;28;20061;-84
2022/09/26 04:38:48;;;;;;;11.25;7.55;;;13.10;99.90;;;;;;5004036;28;20060;-85
2022/09/26 04:41:17;;;;;;;10.65;6.72;;;13.00;99.90;;;;;;5015191;28;20136;-85
2022/09/26 04:43:44;;;;;;;10.65;6.18;;;13.00;99.90;;;;;;4993777;28;20046;-84
2022/09/26 04:46:15;;;;;;;10.50;6.82;;;13.00;99.90;;;;;;5001102;28;20108;-83
2022/09/26 04:48:48;;;;;;;12.02;6.53;;;13.00;99.90;;;;;;5006080;28;20046;-84
2022/09/26 04:51:17;;;;;;;10.68;6.55;;;13.00;99.90;;;;;;4996369;28;20515;-84
2022/09/26 04:53:45;;;;;;;8.77;6.20;;;13.00;99.90;;;;;;5006190;28;20092;-84
2022/09/26 04:56:13;;;;;;;9.50;6.80;;;13.00;99.90;;;;;;5023029;28;20070;-83
2022/09/26 04:58:44;;;;;;;9.93;6.63;;;13.00;99.90;;;;;;5002000;28;20089;-84
2022/09/26 05:01:16;;;;;;;9.85;6.10;;;13.00;99.90;;;;;;4999448;28;20158;-85
2022/09/26 05:03:44;;;;;;;9.55;6.18;;;12.90;99.90;;;;;;5004565;28;20061;-85
2022/09/26 05:06:12;;;;;;;9.35;6.32;;;12.80;99.90;;;;;;4998980;28;20046;-85
2022/09/26 05:08:43;;;;;;;;;;;12.80;99.90;;;;;;4998125;28;20050;-85
2022/09/26 05:11:10;;;;;;;8.50;5.85;;;12.80;99.90;;;;;;4998151;28;20012;-85
2022/09/26 05:13:37;;;;;;;10.45;6.72;;;12.80;99.90;;;;;;5002935;28;20133;-85
2022/09/26 05:16:07;;;;;;;9.48;5.47;;;12.80;99.90;;;;;;5021782;28;20499;-83
2022/09/26 05:18:35;;;;;;;8.00;5.30;;;12.80;99.90;;;;;;5012712;28;20443;-85
2022/09/26 05:21:04;;;;;;;9.95;6.20;;;12.80;99.90;;;;;;5008240;28;20054;-85
2022/09/26 05:26:51;;;;;;;6.80;4.90;;;12.80;99.90;;;;;;5018629;28;20101;-85
2022/09/26 05:29:19;;;;;;;11.10;6.13;;;12.80;99.90;;;;;;4982994;28;20056;-85
2022/09/26 05:31:46;;;;;;;5.97;4.80;;;12.80;99.90;;;;;;5025970;28;20054;-85
2022/09/26 05:34:14;;;;;;;8.77;5.60;;;12.80;99.90;;;;;;5019924;28;20061;-84
2022/09/26 05:36:46;;;;;;;9.30;6.68;;;12.70;99.90;;;;;;4995628;28;20046;-85
2022/09/26 05:41:58;;;;;;;7.63;5.38;;;12.70;99.90;;;;;;5006415;28;20084;-85
2022/09/26 05:44:26;;;;;;;8.82;6.40;;;12.70;99.90;;;;;;5014354;28;20050;-85
2022/09/26 05:46:53;;;;;;;9.52;6.65;;;12.70;99.90;;;;;;5010989;28;20050;-85
2022/09/26 05:49:19;;;;;;;9.05;6.22;;;12.70;99.90;;;;;;4992011;28;20046;-85
2022/09/26 05:51:46;;;;;;;10.82;5.90;;;12.70;99.90;;;;;;4985503;28;20056;-84
2022/09/26 05:54:13;;;;;;;9.98;6.32;;;12.70;99.90;;;;;;5016232;28;20056;-85
2022/09/26 05:56:40;;;;;;;11.82;6.03;;;12.70;99.90;;;;;;5013246;28;20081;-85
2022/09/26 05:59:06;;;;;;;11.10;7.13;;;12.70;99.90;;;;;;5009259;28;20061;-85
2022/09/26 06:01:33;;;;;;;10.95;6.70;;;12.60;99.90;;;;;;5004504;28;20050;-85
2022/09/26 06:04:01;;;;;;;11.57;7.63;;;12.60;99.90;;;;;;5029330;28;20079;-85
2022/09/26 06:06:29;;;;;;;12.48;7.70;;;12.60;99.90;;;;;;4994180;28;20097;-83
2022/09/26 06:08:56;;;;;;;12.77;8.13;;;12.70;99.90;;;;;;5004069;28;20125;-85
2022/09/26 06:11:27;;;;;;;10.52;7.65;;;12.80;99.90;;;;;;4981498;28;20057;-85
2022/09/26 06:13:54;;;;;;;12.45;7.70;;;12.80;99.90;;;;;;5005946;28;20061;-85
2022/09/26 06:16:21;;;;;;;10.68;7.43;;;12.90;99.90;;;;;;5019923;28;20054;-85
2022/09/26 06:18:51;;;;;;;13.45;7.65;;;12.90;99.90;;;;;;5015991;28;20050;-85
2022/09/26 06:21:19;;;;;;;13.03;8.37;;;12.90;99.90;;;;;;5025202;28;20077;-84
2022/09/26 06:23:45;;;;;;;12.73;8.35;;;12.90;99.90;;;;;;5001959;28;20364;-84
2022/09/26 06:26:18;;;;;;;10.68;7.95;;;12.90;99.90;;;;;;5002945;28;20064;-84
2022/09/26 06:28:45;;;;;;;12.48;8.05;;;12.90;99.90;;;;;;5008106;28;20054;-84
2022/09/26 06:31:15;;;;;;;11.02;7.97;;;12.90;99.90;;;;;;5003648;28;20480;-84
2022/09/26 06:33:43;;;;;;;12.27;8.32;;;12.90;99.90;;;;;;5014908;28;20123;-85
2022/09/26 06:36:10;;;;;;;15.75;8.32;;;13.00;99.90;;;;;;5014340;28;20534;-84
2022/09/26 06:38:37;;;;;;;12.73;8.18;;;13.00;99.90;;;;;;4991378;28;20050;-85
2022/09/26 06:41:06;;;;;;;12.57;8.60;;;13.00;99.90;;;;;;4986369;28;20133;-85
2022/09/26 06:43:33;;;;;;;11.50;8.68;;;13.00;99.90;;;;;;4996594;28;20086;-85
2022/09/26 06:46:00;;;;;;;13.48;8.55;;;13.00;99.90;;;;;;5007059;28;20498;-84
2022/09/26 06:48:27;;;;;;;12.52;7.68;;;13.00;99.90;;;;;;4992342;28;20050;-85
2022/09/26 06:50:55;;;;;;;10.70;8.13;;;12.90;99.90;;;;;;5005635;28;20081;-84
2022/09/26 06:53:22;;;;;;;12.05;8.57;;;12.90;99.90;;;;;;5002580;28;20170;-84
2022/09/26 06:55:49;;;;;;;11.32;7.53;;;12.80;99.90;;;;;;5008777;28;20077;-84
2022/09/26 06:58:16;;;;;;;14.02;8.35;;;12.80;99.90;;;;;;5008613;28;20396;-85
2022/09/26 07:00:43;;;;;;;13.70;8.70;;;12.80;99.90;;;;;;5029364;28;20214;-85
2022/09/26 07:03:12;;;;;;;13.07;8.98;;;12.70;99.90;;;;;;5015913;28;20054;-85
2022/09/26 07:05:39;;;;;;;13.75;8.38;;;12.70;99.90;;;;;;5019421;28;20081;-84
2022/09/26 07:08:05;;;;;;;12.38;8.20;;;12.70;99.90;;;;;;5015004;28;20141;-85
2022/09/26 07:10:36;;;;;;;11.48;8.15;;;12.70;99.90;;;;;;5016870;28;20097;-85
2022/09/26 07:13:05;;;;;;;10.98;8.40;;;12.70;99.90;;;;;;5011901;28;20118;-85
2022/09/26 07:15:34;;;;;;;11.90;8.10;;;12.70;99.90;;;;;;5002921;28;20050;-84
2022/09/26 07:18:03;;;;;;;13.97;8.30;;;12.70;99.90;;;;;;5016061;28;20042;-84
2022/09/26 07:20:32;;;;;;;12.00;7.60;;;12.70;99.90;;;;;;5027123;28;20030;-84
2022/09/26 07:23:03;;;;;;;11.35;7.25;;;12.70;99.90;;;;;;5026237;28;20035;-85
2022/09/26 07:25:30;;;;;;;16.10;8.90;;;12.80;99.90;;;;;;5024763;28;20042;-83
2022/09/26 07:27:58;;;;;;;12.13;8.18;;;12.80;99.90;;;;;;5025016;28;20074;-83
2022/09/26 07:30:27;;;;;;;10.88;7.72;;;12.90;99.90;;;;;;5025564;28;20038;-83
2022/09/26 07:33:02;;;;;;;12.32;7.65;;;13.00;99.90;;;;;;4998664;28;20054;-84
2022/09/26 07:35:34;;;;;;;13.05;7.93;;;13.00;99.90;;;;;;4991788;28;20089;-85
2022/09/26 07:38:01;;;;;;;13.52;8.20;;;13.10;99.90;;;;;;5006252;28;20045;-84
2022/09/26 07:40:28;;;;;;;12.57;7.22;;;13.20;99.90;;;;;;5007287;28;20432;-84
2022/09/26 07:42:59;;;;;;;12.65;7.30;;;13.20;99.90;;;;;;5003536;28;20046;-83
2022/09/26 07:51:16;;;;;;;10.55;7.47;;;13.60;99.90;;;;;;5005154;28;20129;-85
2022/09/26 07:53:42;;;;;;;13.73;8.25;;;13.70;99.90;;;;;;5004545;28;20053;-84
2022/09/26 07:56:09;;;;;;;10.98;7.70;;;13.80;99.90;;;;;;4994356;28;20064;-84
2022/09/26 07:58:42;;;;;;;11.48;8.05;;;13.70;99.90;;;;;;4993854;28;20081;-85
2022/09/26 08:01:11;;;;;;;9.85;7.57;;;13.80;99.90;;;;;;5004097;28;20065;-84
2022/09/26 08:03:40;;;;;;;14.63;8.40;;;13.70;99.90;;;;;;5004452;28;20050;-84
2022/09/26 08:06:08;;;;;;;14.98;8.10;;;13.60;99.90;;;;;;4981862;28;20383;-84
2022/09/26 08:08:35;;;;;;;11.10;7.43;;;13.60;99.90;;;;;;4982888;28;20054;-84
2022/09/26 08:11:04;;;;;;;14.50;7.47;;;13.50;99.90;;;;;;4996124;28;20136;-85
2022/09/26 08:13:31;;;;;;;8.65;5.82;;;13.30;99.90;;;;;;4997887;28;20046;-84
2022/09/26 08:16:04;;;;;;;9.70;6.32;;;13.30;99.90;;;;;;4997985;28;20192;-85
2022/09/26 08:18:32;;;;;;;15.90;6.95;;;13.20;99.90;;;;;;5001111;28;20050;-84
2022/09/26 08:21:02;;;;;;;10.27;6.70;;;13.30;99.90;;;;;;5015269;28;20056;-83
2022/09/26 08:23:29;;;;;;;10.55;6.20;;;13.30;99.90;;;;;;5010435;28;20050;-84
2022/09/26 08:25:55;;;;;;;9.65;6.40;;;13.20;99.90;;;;;;5006046;28;20092;-85
2022/09/26 08:28:22;;;;;;;11.32;6.00;;;13.20;99.90;;;;;;4984012;28;20050;-84
2022/09/26 08:30:49;;;;;;;7.80;5.53;;;13.20;99.90;;;;;;5011750;28;20133;-84
2022/09/26 08:33:17;;;;;;;6.63;4.70;;;13.30;99.90;;;;;;4993480;28;20492;-84
2022/09/26 08:35:44;;;;;;;6.85;5.00;;;13.20;99.90;;;;;;5023848;28;20053;-84
2022/09/26 08:38:11;;;;;;;12.98;5.32;;;13.30;99.90;;;;;;5013218;28;20053;-86
2022/09/26 08:40:50;;;;;;;9.10;5.25;;;13.30;99.90;;;;;;5016045;28;20050;-85
2022/09/26 08:43:28;;;;;;;10.43;5.75;;;13.50;99.90;;;;;;4994602;28;20054;-84
2022/09/26 08:49:37;;;;;;;6.70;4.53;;;13.80;99.90;;;;;;4998341;28;20500;-85
2022/09/26 08:52:23;;;;;;;6.55;4.50;;;13.90;99.90;;;;;;4997599;28;20161;-85
2022/09/26 08:54:53;;;;;;;6.82;4.63;;;14.00;99.90;;;;;;5002922;28;20526;-85
2022/09/26 08:57:23;;;;;;;9.73;4.35;;;14.20;99.90;;;;;;5007788;28;20058;-85
2022/09/26 08:59:52;;;;;;;7.18;4.53;;;14.30;99.90;;;;;;4996744;28;20060;-85
2022/09/26 09:02:37;;;;;;;6.68;4.38;;;14.30;99.90;;;;;;4997519;28;20114;-85
2022/09/26 09:05:07;;;;;;;6.35;4.50;;;14.50;99.90;;;;;;5007086;28;20049;-85
2022/09/26 09:07:34;;;;;;;6.28;4.10;;;14.60;99.90;;;;;;5008098;28;20263;-85
2022/09/26 09:10:04;;;;;;;5.97;4.00;;;14.70;99.90;;;;;;5012550;28;20049;-85
2022/09/26 09:12:57;;;;;;;5.88;3.83;;;14.80;99.90;;;;;;5014720;28;20160;-85
2022/09/26 09:15:27;;;;;;;6.35;3.92;;;15.00;99.90;;;;;;4990983;28;20052;-86
2022/09/26 09:18:19;;;;;;;9.88;4.55;;;15.10;99.90;;;;;;4986165;28;20061;-85
2022/09/26 09:20:56;;;;;;;7.53;4.25;;;15.20;99.90;;;;;;4997708;28;20046;-85
2022/09/26 09:23:47;;;;;;;6.18;4.13;;;15.30;99.90;;;;;;5008312;28;20046;-84
2022/09/26 09:26:26;;;;;;;7.93;3.92;;;15.40;99.90;;;;;;5004741;28;20427;-85
2022/09/26 09:29:44;;;;;;;8.32;3.85;;;15.40;99.90;;;;;;5001341;28;20050;-85
2022/09/26 09:32:19;;;;;;;5.85;3.97;;;15.50;99.90;;;;;;5001958;28;20053;-85
2022/09/26 09:34:48;;;;;;;5.95;3.65;;;15.50;99.90;;;;;;5011700;28;20157;-85
2022/09/26 09:37:24;;;;;;;7.72;3.97;;;15.70;99.90;;;;;;5005656;28;20060;-84
2022/09/26 09:39:52;;;;;;;6.60;3.30;;;15.70;99.90;;;;;;4994508;28;20050;-85
2022/09/26 09:42:42;;;;;;;5.32;3.47;;;15.80;99.90;;;;;;4994366;28;20526;-86
2022/09/26 09:45:12;;;;;;;;;;;15.90;99.90;;;;;;4998592;28;20419;-85
2022/09/26 09:47:39;;;;;;;8.40;4.07;;;15.90;99.90;;;;;;5002079;28;19928;-85
2022/09/26 09:50:47;;;;;;;4.85;3.55;;;15.90;99.90;;;;;;4995364;28;20057;-84
2022/09/26 09:53:28;;;;;;;4.97;2.88;;;15.90;99.90;;;;;;4987114;28;20049;-85
2022/09/26 09:56:17;;;;;;;4.30;3.03;;;16.00;99.90;;;;;;5010683;28;20418;-84
2022/09/26 09:59:11;;;;;;;4.78;2.90;;;16.10;99.90;;;;;;4988136;28;20133;-84
2022/09/26 10:01:47;;;;;;;8.57;3.70;;;16.10;99.90;;;;;;5017268;28;20046;-84
2022/09/26 10:04:26;;;;;;;3.75;3.00;;;16.20;99.90;;;;;;4997624;28;20054;-87
2022/09/26 10:06:54;;;;;;;6.03;3.50;;;16.20;99.90;;;;;;4994120;28;20060;-86
2022/09/26 10:09:30;;;;;;;6.60;3.40;;;16.30;99.90;;;;;;5013872;28;20046;-85
2022/09/26 10:12:11;;;;;;;5.40;3.28;;;16.30;99.90;;;;;;5010815;28;20057;-85
2022/09/26 10:14:54;;;;;;;5.60;3.63;;;16.40;99.90;;;;;;5005732;28;20129;-86
2022/09/26 10:17:22;;;;;;;3.92;2.90;;;16.40;99.90;;;;;;4999451;28;20054;-83
2022/09/26 10:19:49;;;;;;;9.18;3.40;;;16.40;99.90;;;;;;5006633;28;20042;-86
2022/09/26 10:22:36;;;;;;;6.65;2.97;;;16.50;99.90;;;;;;5011036;28;20074;-86
2022/09/26 10:25:14;;;;;;;4.32;2.78;;;16.60;99.90;;;;;;5014354;28;20054;-83
2022/09/26 10:27:50;;;;;;;5.25;2.75;;;16.60;99.90;;;;;;4999830;28;20046;-84
2022/09/26 10:30:20;;;;;;;6.95;3.28;;;16.60;99.90;;;;;;5006215;28;20076;-85
2022/09/26 10:32:50;;;;;;;6.55;2.45;;;16.60;99.90;;;;;;4996185;28;20050;-86
2022/09/26 10:35:25;;;;;;;5.45;2.95;;;16.50;99.90;;;;;;5017433;28;20452;-86
2022/09/26 10:37:59;;;;;;;4.38;3.10;;;16.40;99.90;;;;;;5016322;28;20137;-85
2022/09/26 10:40:45;;;;;;;5.97;3.20;;;16.30;99.90;;;;;;5015641;28;20070;-84
2022/09/26 10:43:23;;;;;;;5.72;2.75;;;16.30;99.90;;;;;;4999351;28;20046;-84
2022/09/26 10:45:54;;;;;;;6.90;2.95;;;16.30;99.90;;;;;;4981362;28;20042;-85
2022/09/26 10:48:55;;;;;;;4.80;2.88;;;16.20;99.90;;;;;;4999616;28;20065;-84
2022/09/26 10:51:36;;;;;;;7.78;3.88;;;16.10;99.90;;;;;;4956472;28;20511;-85
2022/09/26 10:54:06;;;;;;;7.60;3.25;;;16.10;99.90;;;;;;5000411;28;20058;-85
2022/09/26 10:56:38;;;;;;;4.97;2.92;;;16.10;99.90;;;;;;5014257;28;20140;-85
2022/09/26 10:59:08;;;;;;;11.43;3.17;;;16.00;99.90;;;;;;5012239;28;20060;-85
2022/09/26 11:01:44;;;;;;;6.72;3.20;;;16.00;99.90;;;;;;4990348;28;20050;-85
2022/09/26 11:07:23;;;;;;;5.27;2.60;;;16.00;99.90;;;;;;5012600;28;20046;-85
2022/09/26 11:09:58;;;;;;;4.80;3.05;;;16.00;99.90;;;;;;5009351;28;20282;-85
2022/09/26 11:12:31;;;;;;;5.10;2.53;;;16.00;99.90;;;;;;5005234;28;20124;-85
2022/09/26 11:15:00;;;;;;;4.28;2.13;;;16.00;99.90;;;;;;5009605;28;20054;-85
2022/09/26 11:17:47;;;;;;;4.47;2.80;;;16.00;99.90;;;;;;5013328;28;20057;-86
2022/09/26 11:20:27;;;;;;;8.15;2.60;;;15.90;99.90;;;;;;5009133;28;20093;-85
2022/09/26 11:23:18;;;;;;;5.95;2.20;;;16.00;99.90;;;;;;5003984;28;20412;-86
2022/09/26 11:26:15;;;;;;;4.63;2.38;;;16.00;99.90;;;;;;5014298;28;20113;-85
2022/09/26 11:28:50;;;;;;;4.75;2.10;;;16.10;99.90;;;;;;4994626;28;20046;-85
2022/09/26 11:31:27;;;;;;;6.90;2.15;;;16.10;99.90;;;;;;4989646;28;20054;-85
2022/09/26 11:33:58;;;;;;;3.92;2.17;;;16.10;99.90;;;;;;5009590;28;20230;-84
2022/09/26 11:36:24;;;;;;;7.38;2.85;;;16.10;99.90;;;;;;5013976;28;20084;-85
2022/09/26 11:38:56;;;;;;;6.03;1.75;;;16.20;99.90;;;;;;5019026;28;20049;-85
2022/09/26 11:41:56;;;;;;;4.57;2.42;;;16.40;99.90;;;;;;5020110;28;20134;-85
2022/09/26 11:44:33;;;;;;;5.15;2.03;;;16.50;99.90;;;;;;5013123;28;20060;-85
2022/09/26 11:47:02;;;;;;;4.57;2.70;;;16.50;99.90;;;;;;5010765;28;20101;-85
2022/09/26 11:49:35;;;;;;;4.72;2.00;;;16.60;99.90;;;;;;5030402;28;20047;-85
2022/09/26 11:52:20;;;;;;;5.53;2.42;;;16.70;99.90;;;;;;5017246;28;20061;-85
2022/09/26 11:55:23;;;;;;;3.45;1.90;;;16.90;99.90;;;;;;5019301;28;20531;-85
2022/09/26 11:58:09;;;;;;;3.60;1.90;;;17.10;99.90;;;;;;5016499;28;20047;-86
2022/09/26 12:00:47;;;;;;;5.40;2.40;;;17.20;99.90;;;;;;5007158;28;20057;-85
2022/09/26 12:03:46;;;;;;;5.70;2.95;;;17.20;99.90;;;;;;5017604;28;20047;-85
2022/09/26 12:06:18;;;;;;;3.05;1.70;;;17.20;99.90;;;;;;5019596;28;20485;-85
2022/09/26 12:08:56;;;;;;;3.22;1.55;;;17.30;99.90;;;;;;5016221;28;20042;-85
2022/09/26 12:11:44;;;;;;;5.25;1.67;;;17.30;99.90;;;;;;5023322;28;20046;-85
2022/09/26 12:14:55;;;;;;;3.83;1.45;;;17.40;99.90;;;;;;5014541;28;20538;-85
2022/09/26 12:17:52;;;;;;;3.08;1.70;;;17.40;99.90;;;;;;4954835;28;20043;-85
2022/09/26 12:20:31;;;;;;;3.28;1.80;;;17.40;99.90;;;;;;5004953;28;20133;-85
2022/09/26 12:23:36;;;;;;;3.75;1.30;;;17.50;99.90;;;;;;5002285;28;20054;-86
2022/09/26 12:26:13;;;;;;;2.50;1.10;;;17.50;99.90;;;;;;5005849;28;20065;-86
2022/09/26 12:29:08;;;;;;;2.97;1.33;;;17.50;99.90;;;;;;5013279;28;20130;-86
2022/09/26 12:31:43;;;;;;;4.40;0.95;;;17.50;99.90;;;;;;4998382;28;20162;-85
2022/09/26 12:34:22;;;;;;;1.80;0.90;;;17.50;99.90;;;;;;4997643;28;20061;-86
2022/09/26 12:37:22;;;;;;;4.10;1.67;;;17.40;99.90;;;;;;5008513;28;20046;-86
2022/09/26 12:40:08;;;;;;;3.13;1.10;;;17.40;99.90;;;;;;4992615;28;20054;-85
2022/09/26 12:43:06;;;;;;;2.30;1.20;;;17.30;99.90;;;;;;5013940;28;20672;-85
2022/09/26 12:46:01;;;;;;;2.65;0.80;;;17.20;99.90;;;;;;5005610;28;20046;-85
2022/09/26 12:48:39;;;;;;;1.77;0.88;;;17.10;99.90;;;;;;5009594;28;20501;-85
2022/09/26 12:51:27;;;;;;;3.42;1.10;;;17.10;99.90;;;;;;5000717;28;20050;-85
2022/09/26 12:54:19;;;;;;;2.38;0.80;;;17.10;99.90;;;;;;5011483;28;20419;-86
2022/09/26 12:56:54;;;;;;;3.85;1.45;;;17.10;99.90;;;;;;5005634;28;20503;-85
2022/09/26 12:59:45;;;;;;;4.85;1.17;;;17.00;99.90;;;;;;4985908;28;20058;-85
2022/09/26 13:02:47;;;;;;;3.28;1.40;;;17.00;99.90;;;;;;5005171;28;20475;-85
2022/09/26 13:05:21;;;;;;;5.22;1.38;;;17.10;99.90;;;;;;4969084;28;20050;-85
2022/09/26 13:08:25;;;;;;;4.65;1.23;;;17.00;99.90;;;;;;5007721;28;20050;-85
2022/09/26 13:10:58;;;;;;;1.63;1.10;;;17.00;99.90;;;;;;5000742;28;20519;-86
2022/09/26 13:13:36;;;;;;;2.78;1.08;;;17.00;99.90;;;;;;5007055;28;20064;-85
2022/09/26 13:16:11;;;;;;;1.25;0.73;;;17.00;99.90;;;;;;5001727;28;20117;-85
2022/09/26 13:18:48;;;;;;;1.75;1.02;;;17.00;99.90;;;;;;5005831;28;20058;-85
2022/09/26 13:21:23;;;;;;;3.08;1.30;;;17.00;99.90;;;;;;5012082;28;20056;-86
2022/09/26 13:24:03;;;;;;;3.28;1.10;;;17.00;99.90;;;;;;5015845;28;20060;-85
2022/09/26 13:26:43;;;;;;;2.55;1.20;;;17.00;99.90;;;;;;5003171;28;20046;-85
2022/09/26 13:29:26;;;;;;;3.75;1.20;;;17.00;99.90;;;;;;4988749;28;20082;-85
2022/09/26 13:32:08;;;;;;;4.25;1.20;;;17.00;99.90;;;;;;4997217;28;20057;-85
2022/09/26 13:35:05;;;;;;;4.10;1.20;;;17.10;99.90;;;;;;5024390;28;20050;-85
2022/09/26 13:38:17;;;;;;;1.27;1.00;;;17.20;99.90;;;;;;4999302;28;20057;-86